sensor_id;sensor_type;location;lat;lon;timestamp;pressure;altitude;pressure_sealevel;temperature;humidity
4590;BME280;2307;48.448;9.216;2022-08-19T00:00:48;95133.16;;;17.94;100.00
4590;BME280;2307;48.448;9.216;2022-08-19T00:03:15;95126.63;;;17.81;100.00
4590;BME280;2307;48.448;9.216;2022-08-19T00:05:41;95122.94;;;17.77;100.00
4590;BME280;2307;48.448;9.216;2022-08-19T00:08:08;95113.53;;;17.80;100.00
4590;BME280;2307;48.448;9.216;2022-08-19T00:10:36;95115.09;;;17.62;100.00
4590;BME280;2307;48.448;9.216;2022-08-19T00:13:02;95120.19;;;17.82;100.00
4590;BME280;2307;48.448;9.216;2022-08-19T00:15:29;95116.00;;;17.76;100.00
4590;BME280;2307;48.448;9.216;2022-08-19T00:17:55;95108.75;;;17.58;100.00
4590;BME280;2307;48.448;9.216;2022-08-19T00:20:22;95105.78;;;17.60;100.00
4590;BME280;2307;48.448;9.216;2022-08-19T00:22:48;95101.34;;;17.74;100.00
4590;BME280;2307;48.448;9.216;2022-08-19T00:25:15;95104.31;;;17.72;100.00
4590;BME280;2307;48.448;9.216;2022-08-19T00:27:44;95098.50;;;17.65;100.00
4590;BME280;2307;48.448;9.216;2022-08-19T00:30:12;95099.97;;;17.52;100.00
4590;BME280;2307;48.448;9.216;2022-08-19T00:32:39;95098.44;;;17.46;100.00
4590;BME280;2307;48.448;9.216;2022-08-19T00:35:05;95107.84;;;17.39;100.00
4590;BME280;2307;48.448;9.216;2022-08-19T00:37:32;95113.16;;;17.44;100.00
4590;BME280;2307;48.448;9.216;2022-08-19T00:40:00;95130.41;;;17.51;100.00
4590;BME280;2307;48.448;9.216;2022-08-19T00:42:27;95134.38;;;17.54;100.00
4590;BME280;2307;48.448;9.216;2022-08-19T00:44:55;95128.63;;;17.47;100.00
4590;BME280;2307;48.448;9.216;2022-08-19T00:47:22;95129.72;;;17.41;100.00
4590;BME280;2307;48.448;9.216;2022-08-19T00:49:49;95126.53;;;17.39;100.00
4590;BME280;2307;48.448;9.216;2022-08-19T00:52:17;95126.31;;;17.35;100.00
4590;BME280;2307;48.448;9.216;2022-08-19T00:54:45;95134.28;;;17.40;100.00
4590;BME280;2307;48.448;9.216;2022-08-19T00:57:13;95129.34;;;17.52;100.00
4590;BME280;2307;48.448;9.216;2022-08-19T00:59:41;95128.16;;;17.40;100.00
4590;BME280;2307;48.448;9.216;2022-08-19T01:02:09;95127.13;;;17.36;100.00
4590;BME280;2307;48.448;9.216;2022-08-19T01:04:36;95125.75;;;17.38;100.00
4590;BME280;2307;48.448;9.216;2022-08-19T01:07:02;95125.88;;;17.52;100.00
4590;BME280;2307;48.448;9.216;2022-08-19T01:09:29;95121.09;;;17.49;100.00
4590;BME280;2307;48.448;9.216;2022-08-19T01:11:55;95119.00;;;17.46;100.00
4590;BME280;2307;48.448;9.216;2022-08-19T01:14:22;95110.13;;;17.50;100.00
4590;BME280;2307;48.448;9.216;2022-08-19T01:16:49;95102.19;;;17.45;100.00
4590;BME280;2307;48.448;9.216;2022-08-19T01:19:22;95108.25;;;17.27;100.00
4590;BME280;2307;48.448;9.216;2022-08-19T01:21:53;95108.59;;;17.44;100.00
4590;BME280;2307;48.448;9.216;2022-08-19T01:24:22;95108.50;;;17.31;100.00
4590;BME280;2307;48.448;9.216;2022-08-19T01:26:49;95109.72;;;17.38;100.00
4590;BME280;2307;48.448;9.216;2022-08-19T01:29:16;95105.41;;;17.42;100.00
4590;BME280;2307;48.448;9.216;2022-08-19T01:31:42;95108.88;;;17.43;100.00
4590;BME280;2307;48.448;9.216;2022-08-19T01:34:08;95108.94;;;17.38;100.00
4590;BME280;2307;48.448;9.216;2022-08-19T01:36:36;95105.75;;;17.36;100.00
4590;BME280;2307;48.448;9.216;2022-08-19T01:39:04;95106.66;;;17.26;100.00
4590;BME280;2307;48.448;9.216;2022-08-19T01:41:33;95100.06;;;17.19;100.00
4590;BME280;2307;48.448;9.216;2022-08-19T01:43:59;95106.75;;;17.16;100.00
4590;BME280;2307;48.448;9.216;2022-08-19T01:46:28;95108.03;;;17.24;100.00
4590;BME280;2307;48.448;9.216;2022-08-19T01:48:55;95115.75;;;17.25;100.00
4590;BME280;2307;48.448;9.216;2022-08-19T01:51:21;95104.16;;;17.35;100.00
4590;BME280;2307;48.448;9.216;2022-08-19T01:53:48;95106.97;;;17.25;100.00
4590;BME280;2307;48.448;9.216;2022-08-19T01:56:15;95095.66;;;17.09;100.00
4590;BME280;2307;48.448;9.216;2022-08-19T01:58:44;95095.69;;;17.04;100.00
4590;BME280;2307;48.448;9.216;2022-08-19T02:01:12;95094.97;;;16.93;100.00
4590;BME280;2307;48.448;9.216;2022-08-19T02:03:39;95088.06;;;16.92;100.00
4590;BME280;2307;48.448;9.216;2022-08-19T02:06:05;95095.59;;;16.85;100.00
4590;BME280;2307;48.448;9.216;2022-08-19T02:08:33;95108.94;;;16.85;100.00
4590;BME280;2307;48.448;9.216;2022-08-19T02:11:00;95103.59;;;16.85;100.00
4590;BME280;2307;48.448;9.216;2022-08-19T02:13:27;95113.75;;;16.83;100.00
4590;BME280;2307;48.448;9.216;2022-08-19T02:15:55;95104.00;;;16.97;100.00
4590;BME280;2307;48.448;9.216;2022-08-19T02:18:21;95110.31;;;17.07;100.00
4590;BME280;2307;48.448;9.216;2022-08-19T02:20:48;95098.81;;;17.11;100.00
4590;BME280;2307;48.448;9.216;2022-08-19T02:23:15;95095.34;;;17.11;100.00
4590;BME280;2307;48.448;9.216;2022-08-19T02:25:42;95091.09;;;17.10;100.00
4590;BME280;2307;48.448;9.216;2022-08-19T02:28:09;95081.50;;;17.09;100.00
4590;BME280;2307;48.448;9.216;2022-08-19T02:30:36;95080.31;;;17.20;100.00
4590;BME280;2307;48.448;9.216;2022-08-19T02:33:04;95085.66;;;17.20;100.00
4590;BME280;2307;48.448;9.216;2022-08-19T02:35:31;95086.84;;;17.32;100.00
4590;BME280;2307;48.448;9.216;2022-08-19T02:37:57;95079.50;;;17.19;100.00
4590;BME280;2307;48.448;9.216;2022-08-19T02:40:47;95078.91;;;17.27;100.00
4590;BME280;2307;48.448;9.216;2022-08-19T02:43:14;95081.28;;;17.29;100.00
4590;BME280;2307;48.448;9.216;2022-08-19T02:45:41;95066.28;;;17.33;100.00
4590;BME280;2307;48.448;9.216;2022-08-19T02:48:08;95068.94;;;17.33;100.00
4590;BME280;2307;48.448;9.216;2022-08-19T02:50:36;95061.63;;;17.20;100.00
4590;BME280;2307;48.448;9.216;2022-08-19T02:53:03;95074.16;;;17.19;100.00
4590;BME280;2307;48.448;9.216;2022-08-19T02:55:29;95082.13;;;17.24;100.00
4590;BME280;2307;48.448;9.216;2022-08-19T02:57:56;95083.50;;;17.22;100.00
4590;BME280;2307;48.448;9.216;2022-08-19T03:00:22;95079.75;;;17.23;100.00
4590;BME280;2307;48.448;9.216;2022-08-19T03:02:49;95087.34;;;17.11;100.00
4590;BME280;2307;48.448;9.216;2022-08-19T03:05:17;95088.94;;;17.12;100.00
4590;BME280;2307;48.448;9.216;2022-08-19T03:07:43;95087.81;;;17.18;100.00
4590;BME280;2307;48.448;9.216;2022-08-19T03:10:10;95082.34;;;17.04;100.00
4590;BME280;2307;48.448;9.216;2022-08-19T03:12:37;95080.41;;;17.10;100.00
4590;BME280;2307;48.448;9.216;2022-08-19T03:15:04;95079.84;;;17.13;100.00
4590;BME280;2307;48.448;9.216;2022-08-19T03:17:31;95078.78;;;17.14;100.00
4590;BME280;2307;48.448;9.216;2022-08-19T03:19:57;95089.38;;;17.19;100.00
4590;BME280;2307;48.448;9.216;2022-08-19T03:22:25;95081.00;;;17.30;100.00
4590;BME280;2307;48.448;9.216;2022-08-19T03:24:51;95083.84;;;17.39;100.00
4590;BME280;2307;48.448;9.216;2022-08-19T03:27:18;95088.72;;;17.32;100.00
4590;BME280;2307;48.448;9.216;2022-08-19T03:29:45;95085.47;;;17.35;100.00
4590;BME280;2307;48.448;9.216;2022-08-19T03:32:11;95079.84;;;17.36;100.00
4590;BME280;2307;48.448;9.216;2022-08-19T03:34:38;95079.56;;;17.38;100.00
4590;BME280;2307;48.448;9.216;2022-08-19T03:37:05;95070.25;;;17.35;100.00
4590;BME280;2307;48.448;9.216;2022-08-19T03:39:33;95069.28;;;17.26;100.00
4590;BME280;2307;48.448;9.216;2022-08-19T03:42:01;95073.19;;;17.10;100.00
4590;BME280;2307;48.448;9.216;2022-08-19T03:44:28;95084.56;;;17.21;100.00
4590;BME280;2307;48.448;9.216;2022-08-19T03:46:57;95083.59;;;17.35;100.00
4590;BME280;2307;48.448;9.216;2022-08-19T03:49:25;95085.94;;;17.42;100.00
4590;BME280;2307;48.448;9.216;2022-08-19T03:51:52;95094.25;;;17.40;100.00
4590;BME280;2307;48.448;9.216;2022-08-19T03:54:19;95089.41;;;17.42;100.00
4590;BME280;2307;48.448;9.216;2022-08-19T03:56:49;95098.44;;;17.46;100.00
4590;BME280;2307;48.448;9.216;2022-08-19T03:59:17;95092.78;;;17.48;100.00
4590;BME280;2307;48.448;9.216;2022-08-19T04:01:44;95089.66;;;17.41;100.00
4590;BME280;2307;48.448;9.216;2022-08-19T04:04:11;95094.22;;;17.17;100.00
4590;BME280;2307;48.448;9.216;2022-08-19T04:06:38;95094.84;;;17.09;100.00
4590;BME280;2307;48.448;9.216;2022-08-19T04:09:05;95097.19;;;17.15;100.00
4590;BME280;2307;48.448;9.216;2022-08-19T04:11:33;95092.63;;;17.16;100.00
4590;BME280;2307;48.448;9.216;2022-08-19T04:14:02;95094.84;;;17.09;100.00
4590;BME280;2307;48.448;9.216;2022-08-19T04:16:29;95093.94;;;17.18;100.00
4590;BME280;2307;48.448;9.216;2022-08-19T04:18:56;95092.47;;;17.31;100.00
4590;BME280;2307;48.448;9.216;2022-08-19T04:21:23;95082.19;;;17.19;100.00
4590;BME280;2307;48.448;9.216;2022-08-19T04:23:50;95082.81;;;17.11;100.00
4590;BME280;2307;48.448;9.216;2022-08-19T04:26:17;95084.03;;;17.19;100.00
4590;BME280;2307;48.448;9.216;2022-08-19T04:28:43;95091.28;;;17.18;100.00
4590;BME280;2307;48.448;9.216;2022-08-19T04:31:13;95106.66;;;17.26;100.00
4590;BME280;2307;48.448;9.216;2022-08-19T04:33:41;95103.16;;;17.31;100.00
4590;BME280;2307;48.448;9.216;2022-08-19T04:36:07;95093.66;;;17.20;100.00
4590;BME280;2307;48.448;9.216;2022-08-19T04:38:35;95094.84;;;17.09;100.00
4590;BME280;2307;48.448;9.216;2022-08-19T04:41:02;95097.78;;;17.07;100.00
4590;BME280;2307;48.448;9.216;2022-08-19T04:43:46;95095.41;;;17.06;100.00
4590;BME280;2307;48.448;9.216;2022-08-19T04:46:15;95094.72;;;17.19;100.00
4590;BME280;2307;48.448;9.216;2022-08-19T04:48:42;95092.00;;;17.24;100.00
4590;BME280;2307;48.448;9.216;2022-08-19T04:51:09;95091.44;;;17.27;100.00
4590;BME280;2307;48.448;9.216;2022-08-19T04:53:38;95091.06;;;17.15;100.00
4590;BME280;2307;48.448;9.216;2022-08-19T04:56:07;95106.97;;;17.25;100.00
4590;BME280;2307;48.448;9.216;2022-08-19T04:58:34;95108.28;;;17.22;100.00
4590;BME280;2307;48.448;9.216;2022-08-19T05:01:01;95114.72;;;17.21;100.00
4590;BME280;2307;48.448;9.216;2022-08-19T05:03:29;95116.06;;;17.19;100.00
4590;BME280;2307;48.448;9.216;2022-08-19T05:05:58;95122.22;;;17.19;100.00
4590;BME280;2307;48.448;9.216;2022-08-19T05:08:29;95127.44;;;17.29;100.00
4590;BME280;2307;48.448;9.216;2022-08-19T05:10:56;95133.47;;;17.40;100.00
4590;BME280;2307;48.448;9.216;2022-08-19T05:13:22;95148.56;;;17.26;100.00
4590;BME280;2307;48.448;9.216;2022-08-19T05:15:53;95159.47;;;17.29;100.00
4590;BME280;2307;48.448;9.216;2022-08-19T05:18:19;95169.88;;;17.31;100.00
4590;BME280;2307;48.448;9.216;2022-08-19T05:21:06;95168.69;;;17.42;100.00
4590;BME280;2307;48.448;9.216;2022-08-19T05:23:50;95175.72;;;17.33;100.00
4590;BME280;2307;48.448;9.216;2022-08-19T05:26:16;95174.03;;;17.42;100.00
4590;BME280;2307;48.448;9.216;2022-08-19T05:28:43;95162.88;;;17.35;100.00
4590;BME280;2307;48.448;9.216;2022-08-19T05:31:09;95164.50;;;17.36;100.00
4590;BME280;2307;48.448;9.216;2022-08-19T05:33:36;95168.78;;;17.32;100.00
4590;BME280;2307;48.448;9.216;2022-08-19T05:36:02;95169.84;;;17.36;100.00
4590;BME280;2307;48.448;9.216;2022-08-19T05:38:30;95168.78;;;17.32;100.00
4590;BME280;2307;48.448;9.216;2022-08-19T05:40:57;95168.44;;;17.43;100.00
4590;BME280;2307;48.448;9.216;2022-08-19T05:43:23;95174.50;;;17.49;100.00
4590;BME280;2307;48.448;9.216;2022-08-19T05:45:50;95170.75;;;17.50;100.00
4590;BME280;2307;48.448;9.216;2022-08-19T05:48:16;95168.59;;;17.52;100.00
4590;BME280;2307;48.448;9.216;2022-08-19T05:50:45;95169.72;;;17.46;100.00
4590;BME280;2307;48.448;9.216;2022-08-19T05:53:15;95165.44;;;17.50;100.00
4590;BME280;2307;48.448;9.216;2022-08-19T05:55:43;95169.66;;;17.51;100.00
4590;BME280;2307;48.448;9.216;2022-08-19T05:58:09;95160.09;;;17.50;100.00
4590;BME280;2307;48.448;9.216;2022-08-19T06:00:36;95162.94;;;17.59;100.00
4590;BME280;2307;48.448;9.216;2022-08-19T06:03:03;95171.00;;;17.53;100.00
4590;BME280;2307;48.448;9.216;2022-08-19T06:05:29;95173.13;;;17.57;100.00
4590;BME280;2307;48.448;9.216;2022-08-19T06:07:56;95171.19;;;17.62;100.00
4590;BME280;2307;48.448;9.216;2022-08-19T06:10:22;95163.19;;;17.62;100.00
4590;BME280;2307;48.448;9.216;2022-08-19T06:12:50;95173.63;;;17.59;100.00
4590;BME280;2307;48.448;9.216;2022-08-19T06:15:16;95167.50;;;17.58;100.00
4590;BME280;2307;48.448;9.216;2022-08-19T06:17:43;95167.50;;;17.58;100.00
4590;BME280;2307;48.448;9.216;2022-08-19T06:20:10;95162.75;;;17.50;100.00
4590;BME280;2307;48.448;9.216;2022-08-19T06:22:38;95161.66;;;17.51;100.00
4590;BME280;2307;48.448;9.216;2022-08-19T06:25:05;95166.44;;;17.59;100.00
4590;BME280;2307;48.448;9.216;2022-08-19T06:27:32;95163.13;;;17.67;100.00
4590;BME280;2307;48.448;9.216;2022-08-19T06:30:00;95164.66;;;17.73;100.00
4590;BME280;2307;48.448;9.216;2022-08-19T06:32:26;95170.66;;;17.60;100.00
4590;BME280;2307;48.448;9.216;2022-08-19T06:34:53;95167.00;;;17.51;100.00
4590;BME280;2307;48.448;9.216;2022-08-19T06:37:19;95173.44;;;17.50;100.00
4590;BME280;2307;48.448;9.216;2022-08-19T06:39:47;95176.13;;;17.45;100.00
4590;BME280;2307;48.448;9.216;2022-08-19T06:42:14;95180.50;;;17.36;100.00
4590;BME280;2307;48.448;9.216;2022-08-19T06:44:44;95187.84;;;17.49;100.00
4590;BME280;2307;48.448;9.216;2022-08-19T06:47:13;95185.19;;;17.49;100.00
4590;BME280;2307;48.448;9.216;2022-08-19T06:49:41;95181.44;;;17.50;100.00
4590;BME280;2307;48.448;9.216;2022-08-19T06:52:08;95179.84;;;17.49;100.00
4590;BME280;2307;48.448;9.216;2022-08-19T06:54:36;95190.84;;;17.42;100.00
4590;BME280;2307;48.448;9.216;2022-08-19T06:57:03;95183.66;;;17.43;100.00
4590;BME280;2307;48.448;9.216;2022-08-19T06:59:30;95193.03;;;17.40;100.00
4590;BME280;2307;48.448;9.216;2022-08-19T07:01:57;95186.97;;;17.30;100.00
4590;BME280;2307;48.448;9.216;2022-08-19T07:04:26;95196.75;;;17.39;100.00
4590;BME280;2307;48.448;9.216;2022-08-19T07:06:56;95197.56;;;17.40;100.00
4590;BME280;2307;48.448;9.216;2022-08-19T07:09:23;95192.69;;;17.47;100.00
4590;BME280;2307;48.448;9.216;2022-08-19T07:11:50;95193.78;;;17.41;100.00
4590;BME280;2307;48.448;9.216;2022-08-19T07:14:18;95193.78;;;17.41;100.00
4590;BME280;2307;48.448;9.216;2022-08-19T07:16:45;95196.19;;;17.42;100.00
4590;BME280;2307;48.448;9.216;2022-08-19T07:19:12;95202.66;;;17.36;100.00
4590;BME280;2307;48.448;9.216;2022-08-19T07:21:40;95193.28;;;17.39;100.00
4590;BME280;2307;48.448;9.216;2022-08-19T07:24:07;95189.56;;;17.40;100.00
4590;BME280;2307;48.448;9.216;2022-08-19T07:26:37;95191.31;;;17.49;100.00
4590;BME280;2307;48.448;9.216;2022-08-19T07:29:05;95192.69;;;17.47;100.00
4590;BME280;2307;48.448;9.216;2022-08-19T07:31:32;95195.13;;;17.43;100.00
4590;BME280;2307;48.448;9.216;2022-08-19T07:34:02;95196.19;;;17.42;100.00
4590;BME280;2307;48.448;9.216;2022-08-19T07:36:32;95205.50;;;17.45;100.00
4590;BME280;2307;48.448;9.216;2022-08-19T07:39:02;95202.91;;;17.40;100.00
4590;BME280;2307;48.448;9.216;2022-08-19T07:41:29;95209.88;;;17.36;100.00
4590;BME280;2307;48.448;9.216;2022-08-19T07:43:56;95203.69;;;17.40;100.00
4590;BME280;2307;48.448;9.216;2022-08-19T07:46:23;95199.38;;;17.44;100.00
4590;BME280;2307;48.448;9.216;2022-08-19T07:48:49;95200.78;;;17.37;100.00
4590;BME280;2307;48.448;9.216;2022-08-19T07:51:19;95200.50;;;17.38;100.00
4590;BME280;2307;48.448;9.216;2022-08-19T07:53:46;95199.94;;;17.41;100.00
4590;BME280;2307;48.448;9.216;2022-08-19T07:56:14;95211.97;;;17.39;100.00
4590;BME280;2307;48.448;9.216;2022-08-19T07:58:41;95213.09;;;17.33;100.00
4590;BME280;2307;48.448;9.216;2022-08-19T08:01:09;95212.31;;;17.32;100.00
4590;BME280;2307;48.448;9.216;2022-08-19T08:03:37;95229.13;;;17.33;100.00
4590;BME280;2307;48.448;9.216;2022-08-19T08:06:20;95225.84;;;17.41;100.00
4590;BME280;2307;48.448;9.216;2022-08-19T08:09:10;95232.59;;;17.33;100.00
4590;BME280;2307;48.448;9.216;2022-08-19T08:11:43;95233.97;;;17.31;100.00
4590;BME280;2307;48.448;9.216;2022-08-19T08:14:15;95235.03;;;17.30;100.00
4590;BME280;2307;48.448;9.216;2022-08-19T08:16:41;95238.19;;;17.37;100.00
4590;BME280;2307;48.448;9.216;2022-08-19T08:19:09;95231.66;;;17.48;100.00
4590;BME280;2307;48.448;9.216;2022-08-19T08:21:35;95234.94;;;17.40;100.00
4590;BME280;2307;48.448;9.216;2022-08-19T08:24:02;95238.03;;;17.52;100.00
4590;BME280;2307;48.448;9.216;2022-08-19T08:26:29;95232.22;;;17.45;100.00
4590;BME280;2307;48.448;9.216;2022-08-19T08:28:56;95234.47;;;17.33;100.00
4590;BME280;2307;48.448;9.216;2022-08-19T08:31:23;95234.00;;;17.26;100.00
4590;BME280;2307;48.448;9.216;2022-08-19T08:33:49;95238.53;;;17.25;100.00
4590;BME280;2307;48.448;9.216;2022-08-19T08:36:16;95241.50;;;17.24;100.00
4590;BME280;2307;48.448;9.216;2022-08-19T08:38:43;95238.84;;;17.19;100.00
4590;BME280;2307;48.448;9.216;2022-08-19T08:41:13;95247.16;;;17.17;100.00
4590;BME280;2307;48.448;9.216;2022-08-19T08:43:45;95255.34;;;17.26;100.00
4590;BME280;2307;48.448;9.216;2022-08-19T08:46:14;95251.53;;;17.32;100.00
4590;BME280;2307;48.448;9.216;2022-08-19T08:48:44;95258.41;;;17.43;100.00
4590;BME280;2307;48.448;9.216;2022-08-19T08:51:14;95263.66;;;17.53;100.00
4590;BME280;2307;48.448;9.216;2022-08-19T08:53:44;95264.25;;;17.45;100.00
4590;BME280;2307;48.448;9.216;2022-08-19T08:56:12;95264.72;;;17.52;100.00
4590;BME280;2307;48.448;9.216;2022-08-19T08:58:42;95267.38;;;17.57;100.00
4590;BME280;2307;48.448;9.216;2022-08-19T09:01:11;95264.69;;;17.57;100.00
4590;BME280;2307;48.448;9.216;2022-08-19T09:03:39;95256.69;;;17.57;100.00
4590;BME280;2307;48.448;9.216;2022-08-19T09:06:07;95259.34;;;17.62;100.00
4590;BME280;2307;48.448;9.216;2022-08-19T09:08:39;95268.72;;;17.54;100.00
4590;BME280;2307;48.448;9.216;2022-08-19T09:11:07;95266.91;;;17.50;100.00
4590;BME280;2307;48.448;9.216;2022-08-19T09:13:36;95269.81;;;17.53;100.00
4590;BME280;2307;48.448;9.216;2022-08-19T09:16:08;95275.91;;;17.59;100.00
4590;BME280;2307;48.448;9.216;2022-08-19T09:18:42;95269.47;;;17.60;100.00
4590;BME280;2307;48.448;9.216;2022-08-19T09:21:09;95279.91;;;17.62;100.00
4590;BME280;2307;48.448;9.216;2022-08-19T09:23:36;95279.09;;;17.61;100.00
4590;BME280;2307;48.448;9.216;2022-08-19T09:26:06;95279.41;;;17.60;100.00
4590;BME280;2307;48.448;9.216;2022-08-19T09:28:33;95282.28;;;17.63;100.00
4590;BME280;2307;48.448;9.216;2022-08-19T09:30:59;95279.91;;;17.62;100.00
4590;BME280;2307;48.448;9.216;2022-08-19T09:33:25;95277.59;;;17.50;100.00
4590;BME280;2307;48.448;9.216;2022-08-19T09:36:02;95279.66;;;17.58;100.00
4590;BME280;2307;48.448;9.216;2022-08-19T09:38:29;95282.91;;;17.50;100.00
4590;BME280;2307;48.448;9.216;2022-08-19T09:40:55;95289.78;;;17.61;100.00
4590;BME280;2307;48.448;9.216;2022-08-19T09:43:22;95280.69;;;17.62;100.00
4590;BME280;2307;48.448;9.216;2022-08-19T09:45:48;95278.53;;;17.64;100.00
4590;BME280;2307;48.448;9.216;2022-08-19T09:48:14;95280.47;;;17.59;100.00
4590;BME280;2307;48.448;9.216;2022-08-19T09:50:41;95284.50;;;17.51;100.00
4590;BME280;2307;48.448;9.216;2022-08-19T09:53:08;95290.06;;;17.60;100.00
4590;BME280;2307;48.448;9.216;2022-08-19T09:55:35;95297.00;;;17.61;100.00
4590;BME280;2307;48.448;9.216;2022-08-19T09:58:01;95298.84;;;17.60;100.00
4590;BME280;2307;48.448;9.216;2022-08-19T10:00:28;95303.69;;;17.58;100.00
4590;BME280;2307;48.448;9.216;2022-08-19T10:02:55;95300.22;;;17.58;100.00
4590;BME280;2307;48.448;9.216;2022-08-19T10:05:22;95311.94;;;17.62;100.00
4590;BME280;2307;48.448;9.216;2022-08-19T10:08:06;95304.78;;;17.52;100.00
4590;BME280;2307;48.448;9.216;2022-08-19T10:10:36;95303.63;;;17.63;100.00
4590;BME280;2307;48.448;9.216;2022-08-19T10:13:02;95309.53;;;17.65;100.00
4590;BME280;2307;48.448;9.216;2022-08-19T10:15:29;95305.81;;;17.61;100.00
4590;BME280;2307;48.448;9.216;2022-08-19T10:17:55;95306.28;;;17.68;100.00
4590;BME280;2307;48.448;9.216;2022-08-19T10:20:21;95302.53;;;17.69;100.00
4590;BME280;2307;48.448;9.216;2022-08-19T10:22:48;95299.88;;;17.69;100.00
4590;BME280;2307;48.448;9.216;2022-08-19T10:25:14;95302.00;;;17.67;100.00
4590;BME280;2307;48.448;9.216;2022-08-19T10:27:43;95297.97;;;17.70;100.00
4590;BME280;2307;48.448;9.216;2022-08-19T10:30:10;95300.13;;;17.68;100.00
4590;BME280;2307;48.448;9.216;2022-08-19T10:32:37;95307.88;;;17.69;100.00
4590;BME280;2307;48.448;9.216;2022-08-19T10:35:04;95312.66;;;17.72;100.00
4590;BME280;2307;48.448;9.216;2022-08-19T10:37:33;95308.63;;;17.75;100.00
4590;BME280;2307;48.448;9.216;2022-08-19T10:39:59;95308.88;;;17.78;100.00
4590;BME280;2307;48.448;9.216;2022-08-19T10:42:27;95314.72;;;17.80;100.00
4590;BME280;2307;48.448;9.216;2022-08-19T10:44:54;95301.44;;;17.70;100.00
4590;BME280;2307;48.448;9.216;2022-08-19T10:47:21;95288.97;;;17.61;100.00
4590;BME280;2307;48.448;9.216;2022-08-19T10:49:48;95296.25;;;17.55;100.00
4590;BME280;2307;48.448;9.216;2022-08-19T10:52:32;95305.84;;;17.51;100.00
4590;BME280;2307;48.448;9.216;2022-08-19T10:55:02;95296.50;;;17.53;100.00
4590;BME280;2307;48.448;9.216;2022-08-19T10:57:47;95304.19;;;17.60;100.00
4590;BME280;2307;48.448;9.216;2022-08-19T11:00:15;95307.41;;;17.62;100.00
4590;BME280;2307;48.448;9.216;2022-08-19T11:02:41;95305.34;;;17.49;100.00
4590;BME280;2307;48.448;9.216;2022-08-19T11:05:08;95314.72;;;17.46;100.00
4590;BME280;2307;48.448;9.216;2022-08-19T11:07:35;95307.59;;;17.37;100.00
4590;BME280;2307;48.448;9.216;2022-08-19T11:10:02;95313.94;;;17.41;100.00
4590;BME280;2307;48.448;9.216;2022-08-19T11:12:29;95308.09;;;17.39;100.00
4590;BME280;2307;48.448;9.216;2022-08-19T11:14:56;95310.25;;;17.37;100.00
4590;BME280;2307;48.448;9.216;2022-08-19T11:17:23;95319.09;;;17.32;100.00
4590;BME280;2307;48.448;9.216;2022-08-19T11:19:50;95322.06;;;17.26;100.00
4590;BME280;2307;48.448;9.216;2022-08-19T11:22:16;95322.69;;;17.13;100.00
4590;BME280;2307;48.448;9.216;2022-08-19T11:24:43;95331.28;;;17.05;100.00
4590;BME280;2307;48.448;9.216;2022-08-19T11:27:09;95327.56;;;17.00;100.00
4590;BME280;2307;48.448;9.216;2022-08-19T11:29:37;95336.38;;;17.01;100.00
4590;BME280;2307;48.448;9.216;2022-08-19T11:32:04;95344.91;;;17.03;100.00
4590;BME280;2307;48.448;9.216;2022-08-19T11:34:32;95351.59;;;17.06;100.00
4590;BME280;2307;48.448;9.216;2022-08-19T11:37:00;95351.34;;;17.02;100.00
4590;BME280;2307;48.448;9.216;2022-08-19T11:39:28;95360.16;;;16.97;100.00
4590;BME280;2307;48.448;9.216;2022-08-19T11:41:55;95364.44;;;16.93;100.00
4590;BME280;2307;48.448;9.216;2022-08-19T11:44:21;95353.00;;;16.93;100.00
4590;BME280;2307;48.448;9.216;2022-08-19T11:46:48;95354.31;;;16.90;100.00
4590;BME280;2307;48.448;9.216;2022-08-19T11:49:15;95361.00;;;16.88;100.00
4590;BME280;2307;48.448;9.216;2022-08-19T11:51:45;95355.41;;;16.89;100.00
4590;BME280;2307;48.448;9.216;2022-08-19T11:54:12;95354.81;;;16.97;100.00
4590;BME280;2307;48.448;9.216;2022-08-19T11:56:39;95358.53;;;16.96;100.00
4590;BME280;2307;48.448;9.216;2022-08-19T11:59:05;95359.03;;;17.04;100.00
4590;BME280;2307;48.448;9.216;2022-08-19T12:01:32;95359.34;;;17.02;100.00
4590;BME280;2307;48.448;9.216;2022-08-19T12:03:59;95360.13;;;17.03;100.00
4590;BME280;2307;48.448;9.216;2022-08-19T12:06:27;95368.63;;;17.10;100.00
4590;BME280;2307;48.448;9.216;2022-08-19T12:08:55;95364.63;;;17.07;100.00
4590;BME280;2307;48.448;9.216;2022-08-19T12:11:22;95354.25;;;17.00;100.00
4590;BME280;2307;48.448;9.216;2022-08-19T12:13:48;95356.91;;;17.06;100.00
4590;BME280;2307;48.448;9.216;2022-08-19T12:16:16;95352.59;;;17.10;100.00
4590;BME280;2307;48.448;9.216;2022-08-19T12:18:43;95354.75;;;17.08;100.00
4590;BME280;2307;48.448;9.216;2022-08-19T12:21:11;95348.09;;;17.05;100.00
4590;BME280;2307;48.448;9.216;2022-08-19T12:23:38;95352.59;;;17.10;100.00
4590;BME280;2307;48.448;9.216;2022-08-19T12:26:06;95348.06;;;17.10;100.00
4590;BME280;2307;48.448;9.216;2022-08-19T12:28:34;95339.00;;;17.06;100.00
4590;BME280;2307;48.448;9.216;2022-08-19T12:31:01;95348.06;;;17.15;100.00
4590;BME280;2307;48.448;9.216;2022-08-19T12:33:27;95342.47;;;17.12;100.00
4590;BME280;2307;48.448;9.216;2022-08-19T12:35:53;95340.25;;;17.19;100.00
4590;BME280;2307;48.448;9.216;2022-08-19T12:38:20;95339.09;;;17.35;100.00
4590;BME280;2307;48.448;9.216;2022-08-19T12:40:49;95336.41;;;17.40;100.00
4590;BME280;2307;48.448;9.216;2022-08-19T12:43:18;95331.25;;;17.48;100.00
4590;BME280;2307;48.448;9.216;2022-08-19T12:45:45;95333.97;;;17.43;100.00
4590;BME280;2307;48.448;9.216;2022-08-19T12:48:11;95319.81;;;17.43;100.00
4590;BME280;2307;48.448;9.216;2022-08-19T12:50:38;95322.00;;;17.36;100.00
4590;BME280;2307;48.448;9.216;2022-08-19T12:53:05;95307.06;;;17.35;100.00
4590;BME280;2307;48.448;9.216;2022-08-19T12:55:31;95304.38;;;17.35;100.00
4590;BME280;2307;48.448;9.216;2022-08-19T12:57:58;95305.44;;;17.39;100.00
4590;BME280;2307;48.448;9.216;2022-08-19T13:00:27;95310.75;;;17.44;100.00
4590;BME280;2307;48.448;9.216;2022-08-19T13:02:55;95313.34;;;17.49;100.00
4590;BME280;2307;48.448;9.216;2022-08-19T13:05:22;95310.63;;;17.54;100.00
4590;BME280;2307;48.448;9.216;2022-08-19T13:07:49;95317.56;;;17.60;100.00
4590;BME280;2307;48.448;9.216;2022-08-19T13:10:17;95314.88;;;17.60;100.00
4590;BME280;2307;48.448;9.216;2022-08-19T13:12:45;95325.50;;;17.70;100.00